createdAt,value
2023-11-05T00:01:02.882Z,15.05
2023-11-05T00:03:30.973Z,15.27
2023-11-05T00:05:58.871Z,15.48
2023-11-05T00:08:25.927Z,15.70
2023-11-05T00:10:52.980Z,15.82
2023-11-05T00:13:21.246Z,15.20
2023-11-05T00:15:55.520Z,15.10
2023-11-05T00:18:23.415Z,15.75
2023-11-05T00:20:50.737Z,14.95
2023-11-05T00:23:17.824Z,15.20
2023-11-05T00:25:44.855Z,15.05
2023-11-05T00:28:11.864Z,15.10
2023-11-05T00:30:39.696Z,14.90
2023-11-05T00:33:07.749Z,15.20
2023-11-05T00:35:36.017Z,15.00
2023-11-05T00:38:04.952Z,15.18
2023-11-05T00:40:32.220Z,15.20
2023-11-05T00:42:59.535Z,15.38
2023-11-05T00:45:26.603Z,15.25
2023-11-05T00:47:54.074Z,15.05
2023-11-05T00:50:21.399Z,15.07
2023-11-05T00:52:49.323Z,15.10
2023-11-05T00:55:18.435Z,15.27
2023-11-05T00:57:45.766Z,15.27
2023-11-05T01:00:23.757Z,15.15
2023-11-05T01:02:54.770Z,15.35
2023-11-05T01:05:22.065Z,15.35
2023-11-05T01:07:49.185Z,15.27
2023-11-05T01:10:16.704Z,15.95
2023-11-05T01:12:43.951Z,15.15
2023-11-05T01:15:11.159Z,15.25
2023-11-05T01:17:38.369Z,15.02
2023-11-05T01:20:08.222Z,15.20
2023-11-05T01:22:35.343Z,14.98
2023-11-05T01:25:02.379Z,15.07
2023-11-05T01:27:29.445Z,15.30
2023-11-05T01:29:56.498Z,15.40
2023-11-05T01:32:23.603Z,15.07
2023-11-05T01:34:50.663Z,15.18
2023-11-05T01:37:17.812Z,15.68
2023-11-05T01:39:45.043Z,15.95
2023-11-05T01:42:12.032Z,15.82
2023-11-05T01:44:39.132Z,15.82
2023-11-05T01:47:06.570Z,15.73
2023-11-05T01:49:33.757Z,15.73
2023-11-05T01:52:00.872Z,15.70
2023-11-05T01:54:28.147Z,16.00
2023-11-05T01:56:55.666Z,16.10
2023-11-05T01:59:23.230Z,15.68
2023-11-05T02:01:51.661Z,15.93
2023-11-05T02:04:19.071Z,15.80
2023-11-05T02:06:47.289Z,15.77
2023-11-05T02:09:14.547Z,16.33
2023-11-05T02:11:41.494Z,15.85
2023-11-05T02:14:14.442Z,15.48
2023-11-05T02:16:41.763Z,15.27
2023-11-05T02:19:09.267Z,15.80
2023-11-05T02:21:39.084Z,15.52
2023-11-05T02:24:06.580Z,16.30
2023-11-05T02:26:33.606Z,15.30
2023-11-05T02:29:01.860Z,15.32
2023-11-05T02:31:28.946Z,15.13
2023-11-05T02:33:56.750Z,15.20
2023-11-05T02:36:24.025Z,15.35
2023-11-05T02:38:51.060Z,15.30
2023-11-05T02:41:18.797Z,15.52
2023-11-05T02:43:45.769Z,15.20
2023-11-05T02:46:13.157Z,14.95
2023-11-05T02:48:41.744Z,15.38
2023-11-05T02:51:11.412Z,14.90
2023-11-05T02:53:38.405Z,14.77
2023-11-05T02:56:06.285Z,15.05
2023-11-05T02:58:33.540Z,15.05
2023-11-05T03:01:02.075Z,15.10
2023-11-05T03:03:30.914Z,14.32
2023-11-05T03:05:58.035Z,14.55
2023-11-05T03:08:25.162Z,15.30
2023-11-05T03:10:52.193Z,14.90
2023-11-05T03:13:19.174Z,14.85
2023-11-05T03:15:46.292Z,14.70
2023-11-05T03:18:14.543Z,14.95
2023-11-05T03:20:41.619Z,14.93
2023-11-05T03:23:08.679Z,14.82
2023-11-05T03:25:35.699Z,15.23
2023-11-05T03:28:02.916Z,14.80
2023-11-05T03:30:29.932Z,14.85
2023-11-05T03:32:57.151Z,14.32
2023-11-05T03:35:24.207Z,14.65
2023-11-05T03:37:51.284Z,14.88
2023-11-05T03:40:18.660Z,14.40
2023-11-05T03:42:45.866Z,14.60
2023-11-05T03:45:12.846Z,14.65
2023-11-05T03:47:39.958Z,14.65
2023-11-05T03:50:08.233Z,14.85
2023-11-05T03:52:35.235Z,14.82
2023-11-05T03:55:02.444Z,16.13
2023-11-05T03:57:30.170Z,14.75
2023-11-05T03:59:58.759Z,14.80
2023-11-05T04:02:26.188Z,14.68
2023-11-05T04:04:54.884Z,14.70
2023-11-05T04:07:22.250Z,14.63
2023-11-05T04:09:49.318Z,14.77
2023-11-05T04:12:16.449Z,14.88
2023-11-05T04:14:44.597Z,14.30
2023-11-05T04:17:11.589Z,14.23
2023-11-05T04:19:39.595Z,14.32
2023-11-05T04:22:06.654Z,14.77
2023-11-05T04:24:33.697Z,14.75
2023-11-05T04:27:00.781Z,14.52
2023-11-05T04:29:27.965Z,14.63
2023-11-05T04:31:58.270Z,14.70
2023-11-05T04:34:29.001Z,14.60
2023-11-05T04:36:56.163Z,14.70
2023-11-05T04:39:23.350Z,14.65
2023-11-05T04:41:50.379Z,14.90
2023-11-05T04:44:17.385Z,14.80
2023-11-05T04:46:44.647Z,14.80
2023-11-05T04:49:12.250Z,15.00
2023-11-05T04:51:43.265Z,14.77
2023-11-05T04:54:12.138Z,14.73
2023-11-05T04:56:39.132Z,14.70
2023-11-05T04:59:06.119Z,14.70
2023-11-05T05:01:33.178Z,14.70
2023-11-05T05:04:01.430Z,15.05
2023-11-05T05:06:28.506Z,15.65
2023-11-05T05:08:55.489Z,15.57
2023-11-05T05:11:22.546Z,15.55
2023-11-05T05:13:51.135Z,14.85
2023-11-05T05:16:19.505Z,15.13
2023-11-05T05:18:47.451Z,14.90
2023-11-05T05:21:14.800Z,14.95
2023-11-05T05:23:41.948Z,14.77
2023-11-05T05:26:11.001Z,14.68
2023-11-05T05:28:39.578Z,15.02
2023-11-05T05:31:06.734Z,14.30
2023-11-05T05:33:33.877Z,14.20
2023-11-05T05:36:01.008Z,14.50
2023-11-05T05:38:29.242Z,14.57
2023-11-05T05:40:56.290Z,14.40
2023-11-05T05:43:23.340Z,14.25
2023-11-05T05:45:50.383Z,14.10
2023-11-05T05:48:17.467Z,14.45
2023-11-05T05:50:44.692Z,14.35
2023-11-05T05:53:14.552Z,14.60
2023-11-05T05:55:42.761Z,14.57
2023-11-05T05:58:10.227Z,14.38
2023-11-05T06:00:37.302Z,14.75
2023-11-05T06:03:05.481Z,14.93
2023-11-05T06:05:32.767Z,16.08
2023-11-05T06:08:00.053Z,14.65
2023-11-05T06:10:27.149Z,15.02
2023-11-05T06:12:54.251Z,15.98
2023-11-05T06:15:21.287Z,15.55
2023-11-05T06:17:48.453Z,15.57
2023-11-05T06:20:15.612Z,15.55
2023-11-05T06:22:42.709Z,15.27
2023-11-05T06:25:12.799Z,15.18
2023-11-05T06:27:41.155Z,15.10
2023-11-05T06:30:09.713Z,16.10
2023-11-05T06:32:37.031Z,15.70
2023-11-05T06:35:04.504Z,15.25
2023-11-05T06:37:32.457Z,15.18
2023-11-05T06:39:59.667Z,15.30
2023-11-05T06:42:26.745Z,15.10
2023-11-05T06:44:53.838Z,15.30
2023-11-05T06:47:20.898Z,15.13
2023-11-05T06:49:48.048Z,15.40
2023-11-05T06:52:15.384Z,14.95
2023-11-05T06:54:42.672Z,15.55
2023-11-05T06:57:10.640Z,15.27
2023-11-05T06:59:38.046Z,15.80
2023-11-05T07:02:05.588Z,15.63
2023-11-05T07:04:33.446Z,15.43
2023-11-05T07:07:02.061Z,15.85
2023-11-05T07:09:29.302Z,16.17
2023-11-05T07:11:56.588Z,15.75
2023-11-05T07:14:23.896Z,15.63
2023-11-05T07:16:51.159Z,15.45
2023-11-05T07:19:20.188Z,15.32
2023-11-05T07:21:47.347Z,15.60
2023-11-05T07:24:18.277Z,15.30
2023-11-05T07:26:45.329Z,15.63
2023-11-05T07:29:15.007Z,15.48
2023-11-05T07:31:44.108Z,15.65
2023-11-05T07:34:13.966Z,15.88
2023-11-05T07:36:42.206Z,16.08
2023-11-05T07:39:11.168Z,24.40
2023-11-05T07:41:39.340Z,16.23
2023-11-05T07:44:06.999Z,15.55
2023-11-05T07:46:35.165Z,15.25
2023-11-05T07:49:02.746Z,15.20
2023-11-05T07:51:30.110Z,15.20
2023-11-05T07:53:57.306Z,15.60
2023-11-05T07:56:24.415Z,15.43
2023-11-05T07:58:52.194Z,15.65
2023-11-05T08:01:19.504Z,15.45
2023-11-05T08:03:46.754Z,15.50
2023-11-05T08:06:13.870Z,15.35
2023-11-05T08:08:42.952Z,15.48
2023-11-05T08:11:10.002Z,15.50
2023-11-05T08:13:36.989Z,15.73
2023-11-05T08:16:04.743Z,15.60
2023-11-05T08:18:31.799Z,15.52
2023-11-05T08:20:58.892Z,15.48
2023-11-05T08:23:25.857Z,15.85
2023-11-05T08:25:52.961Z,16.10
2023-11-05T08:28:25.754Z,15.98
2023-11-05T08:30:54.606Z,15.70
2023-11-05T08:33:22.363Z,15.60
2023-11-05T08:35:52.223Z,15.55
2023-11-05T08:38:19.376Z,15.35
2023-11-05T08:40:46.797Z,15.82
2023-11-05T08:43:14.365Z,15.15
2023-11-05T08:45:47.860Z,15.80
2023-11-05T08:48:18.364Z,15.35
2023-11-05T08:50:45.436Z,15.05
2023-11-05T08:53:12.618Z,15.82
2023-11-05T08:55:40.008Z,15.73
2023-11-05T08:58:07.142Z,15.65
2023-11-05T09:00:36.862Z,15.90
2023-11-05T09:03:05.783Z,15.27
2023-11-05T09:05:33.154Z,15.38
2023-11-05T09:08:00.335Z,15.30
2023-11-05T09:10:28.233Z,15.90
2023-11-05T09:12:56.835Z,17.10
2023-11-05T09:15:24.427Z,15.40
2023-11-05T09:17:52.223Z,15.70
2023-11-05T09:20:21.238Z,38.95
2023-11-05T09:22:48.682Z,17.15
2023-11-05T09:25:16.123Z,15.65
2023-11-05T09:27:43.302Z,17.05
2023-11-05T09:30:13.646Z,15.98
2023-11-05T09:32:42.021Z,17.05
2023-11-05T09:35:13.784Z,16.38
2023-11-05T09:37:42.856Z,15.30
2023-11-05T09:40:15.426Z,15.00
2023-11-05T09:43:12.272Z,14.85
2023-11-05T09:45:39.538Z,15.60
2023-11-05T09:48:13.432Z,16.38
2023-11-05T09:50:43.158Z,16.52
2023-11-05T09:53:15.995Z,16.48
2023-11-05T09:55:46.267Z,17.25
2023-11-05T09:58:17.512Z,16.52
2023-11-05T10:00:45.271Z,16.55
2023-11-05T10:03:14.170Z,16.17
2023-11-05T10:05:45.964Z,16.27
2023-11-05T10:08:13.906Z,16.27
2023-11-05T10:10:44.259Z,15.70
2023-11-05T10:13:12.316Z,16.95
2023-11-05T10:15:41.835Z,15.95
2023-11-05T10:18:15.062Z,16.23
2023-11-05T10:20:57.417Z,16.30
2023-11-05T10:23:25.991Z,16.30
2023-11-05T10:25:54.645Z,16.38
2023-11-05T10:28:23.465Z,16.25
2023-11-05T10:30:55.193Z,16.10
2023-11-05T10:33:24.244Z,15.73
2023-11-05T10:35:52.741Z,16.02
2023-11-05T10:38:20.631Z,18.15
2023-11-05T10:40:53.383Z,17.90
2023-11-05T10:43:24.641Z,16.70
2023-11-05T10:45:53.956Z,18.13
2023-11-05T10:48:21.167Z,17.10
2023-11-05T10:50:49.804Z,16.95
2023-11-05T10:53:17.155Z,17.00
2023-11-05T10:55:45.388Z,17.50
2023-11-05T10:58:18.748Z,15.75
2023-11-05T11:00:55.682Z,16.27
2023-11-05T11:03:23.468Z,17.55
2023-11-05T11:05:50.469Z,19.15
2023-11-05T11:08:26.497Z,20.20
2023-11-05T11:11:14.237Z,22.17
2023-11-05T11:13:59.280Z,21.88
2023-11-05T11:16:35.910Z,23.13
2023-11-05T11:19:10.640Z,23.30
2023-11-05T11:22:04.187Z,23.98
2023-11-05T11:24:38.263Z,23.38
2023-11-05T11:27:07.038Z,24.23
2023-11-05T11:29:36.140Z,22.80
2023-11-05T11:32:04.456Z,23.05
2023-11-05T11:34:34.833Z,23.45
2023-11-05T11:37:06.781Z,23.08
2023-11-05T11:39:34.506Z,23.38
2023-11-05T11:42:01.855Z,22.63
2023-11-05T11:44:29.264Z,23.33
2023-11-05T11:46:56.747Z,21.52
2023-11-05T11:49:28.837Z,20.77
2023-11-05T11:51:56.313Z,20.70
2023-11-05T11:54:27.141Z,20.85
2023-11-05T11:56:54.740Z,19.80
2023-11-05T11:59:25.906Z,19.92
2023-11-05T12:01:53.618Z,20.20
2023-11-05T12:04:23.149Z,19.77
2023-11-05T12:06:50.772Z,19.77
2023-11-05T12:09:25.569Z,20.27
2023-11-05T12:11:53.876Z,20.30
2023-11-05T12:14:25.190Z,20.83
2023-11-05T12:16:58.747Z,21.00
2023-11-05T12:19:28.127Z,20.88
2023-11-05T12:21:55.405Z,22.20
2023-11-05T12:24:22.574Z,23.40
2023-11-05T12:26:50.811Z,23.50
2023-11-05T12:29:17.923Z,23.75
2023-11-05T12:31:45.312Z,24.50
2023-11-05T12:34:13.089Z,24.25
2023-11-05T12:36:40.242Z,24.90
2023-11-05T12:39:07.260Z,24.33
2023-11-05T12:41:36.106Z,25.30
2023-11-05T12:44:03.167Z,24.65
2023-11-05T12:46:31.756Z,25.38
2023-11-05T12:48:58.965Z,26.15
2023-11-05T12:51:26.081Z,26.23
2023-11-05T12:53:53.433Z,23.80
2023-11-05T12:56:20.626Z,24.17
2023-11-05T12:58:49.691Z,22.35
2023-11-05T13:01:16.917Z,20.50
2023-11-05T13:03:44.656Z,19.60
2023-11-05T13:06:12.285Z,19.05
2023-11-05T13:08:39.544Z,19.08
2023-11-05T13:11:07.636Z,20.17
2023-11-05T13:13:35.837Z,21.45
2023-11-05T13:16:03.904Z,21.85
2023-11-05T13:18:31.296Z,22.20
2023-11-05T13:20:58.743Z,21.67
2023-11-05T13:23:27.215Z,24.23
2023-11-05T13:25:54.415Z,25.15
2023-11-05T13:28:22.001Z,26.55
2023-11-05T13:30:49.249Z,26.83
2023-11-05T13:33:17.121Z,29.20
2023-11-05T13:35:46.574Z,30.95
2023-11-05T13:38:13.715Z,30.63
2023-11-05T13:40:40.962Z,29.33
2023-11-05T13:43:08.080Z,30.42
2023-11-05T13:45:35.174Z,28.35
2023-11-05T13:48:02.313Z,28.58
2023-11-05T13:50:29.466Z,28.45
2023-11-05T13:52:59.176Z,28.95
2023-11-05T13:55:26.273Z,30.60
2023-11-05T13:57:53.578Z,29.70
2023-11-05T14:00:21.706Z,29.90
2023-11-05T14:02:48.776Z,27.65
2023-11-05T14:05:16.526Z,27.75
2023-11-05T14:07:43.852Z,28.67
2023-11-05T14:10:13.246Z,28.63
2023-11-05T14:12:40.536Z,28.77
2023-11-05T14:15:09.627Z,30.05
2023-11-05T14:17:37.351Z,28.75
2023-11-05T14:20:11.731Z,27.30
2023-11-05T14:22:39.399Z,26.58
2023-11-05T14:25:07.313Z,26.80
2023-11-05T14:27:34.468Z,26.58
2023-11-05T14:30:01.928Z,26.10
2023-11-05T14:32:29.087Z,26.35
2023-11-05T14:34:57.680Z,25.52
2023-11-05T14:37:25.070Z,25.15
2023-11-05T14:39:52.185Z,24.20
2023-11-05T14:42:19.295Z,23.52
2023-11-05T14:44:46.305Z,23.63
2023-11-05T14:47:15.579Z,23.98
2023-11-05T14:49:42.731Z,24.17
2023-11-05T14:52:09.822Z,26.20
2023-11-05T14:54:37.461Z,26.95
2023-11-05T14:57:08.579Z,27.00
2023-11-05T14:59:35.892Z,29.02
2023-11-05T15:02:02.970Z,32.58
2023-11-05T15:04:30.662Z,29.13
2023-11-05T15:06:57.695Z,29.00
2023-11-05T15:09:24.811Z,30.92
2023-11-05T15:11:51.914Z,31.95
2023-11-05T15:14:19.085Z,28.58
2023-11-05T15:16:46.330Z,29.77
2023-11-05T15:19:14.644Z,31.35
2023-11-05T15:21:42.330Z,31.73
2023-11-05T15:24:12.208Z,29.75
2023-11-05T15:26:40.276Z,29.75
2023-11-05T15:29:07.502Z,28.85
2023-11-05T15:31:34.826Z,29.05
2023-11-05T15:34:03.178Z,29.85
2023-11-05T15:36:34.028Z,29.15
2023-11-05T15:39:01.170Z,28.88
2023-11-05T15:41:28.271Z,27.42
2023-11-05T15:43:55.532Z,27.88
2023-11-05T15:46:25.308Z,26.77
2023-11-05T15:48:52.869Z,27.30
2023-11-05T15:51:23.034Z,29.92
2023-11-05T15:53:50.817Z,29.10
2023-11-05T15:56:21.301Z,30.08
2023-11-05T15:58:48.443Z,29.52
2023-11-05T16:01:15.770Z,28.75
2023-11-05T16:03:44.176Z,28.70
2023-11-05T16:06:12.041Z,28.30
2023-11-05T16:08:39.113Z,29.23
2023-11-05T16:11:06.993Z,29.60
2023-11-05T16:13:34.388Z,29.92
2023-11-05T16:16:01.420Z,29.00
2023-11-05T16:18:28.577Z,29.55
2023-11-05T16:20:55.649Z,30.00
2023-11-05T16:23:22.812Z,28.27
2023-11-05T16:25:50.351Z,29.20
2023-11-05T16:28:18.568Z,29.83
2023-11-05T16:30:47.877Z,28.05
2023-11-05T16:33:16.470Z,28.50
2023-11-05T16:35:44.253Z,28.02
2023-11-05T16:38:11.278Z,29.90
2023-11-05T16:40:40.482Z,31.17
2023-11-05T16:43:07.672Z,29.02
2023-11-05T16:45:34.699Z,27.70
2023-11-05T16:48:02.747Z,27.90
2023-11-05T16:50:29.928Z,28.70
2023-11-05T16:52:58.274Z,29.83
2023-11-05T16:55:25.636Z,27.45
2023-11-05T16:57:52.673Z,26.30
2023-11-05T17:00:19.775Z,26.63
2023-11-05T17:02:48.231Z,25.27
2023-11-05T17:05:15.499Z,27.77
2023-11-05T17:07:43.505Z,28.23
2023-11-05T17:10:14.105Z,27.20
2023-11-05T17:12:42.817Z,30.50
2023-11-05T17:15:10.135Z,28.92
2023-11-05T17:17:37.942Z,27.90
2023-11-05T17:20:06.152Z,27.05
2023-11-05T17:22:35.080Z,28.40
2023-11-05T17:25:02.282Z,27.05
2023-11-05T17:27:29.368Z,26.58
2023-11-05T17:29:56.364Z,25.65
2023-11-05T17:32:23.443Z,26.08
2023-11-05T17:34:50.492Z,25.50
2023-11-05T17:37:18.226Z,24.88
2023-11-05T17:39:45.425Z,26.58
2023-11-05T17:42:12.498Z,25.60
2023-11-05T17:44:39.547Z,27.85
2023-11-05T17:47:06.827Z,29.58
2023-11-05T17:49:33.997Z,30.83
2023-11-05T17:52:01.564Z,30.20
2023-11-05T17:54:28.874Z,30.13
2023-11-05T17:56:57.675Z,31.33
2023-11-05T17:59:28.011Z,30.33
2023-11-05T18:01:55.135Z,29.30
2023-11-05T18:04:24.560Z,28.90
2023-11-05T18:06:53.248Z,27.40
2023-11-05T18:09:20.493Z,27.23
2023-11-05T18:11:47.699Z,24.77
2023-11-05T18:14:14.999Z,23.75
2023-11-05T18:16:42.116Z,22.33
2023-11-05T18:19:09.183Z,22.60
2023-11-05T18:21:36.392Z,22.98
2023-11-05T18:24:04.019Z,23.17
2023-11-05T18:26:32.826Z,22.02
2023-11-05T18:28:59.894Z,21.73
2023-11-05T18:31:27.188Z,21.73
2023-11-05T18:33:59.532Z,21.65
2023-11-05T18:36:29.764Z,24.33
2023-11-05T18:38:56.838Z,22.13
2023-11-05T18:41:25.970Z,23.05
2023-11-05T18:43:54.197Z,22.13
2023-11-05T18:46:21.318Z,22.77
2023-11-05T18:48:49.215Z,23.33
2023-11-05T18:51:19.695Z,23.05
2023-11-05T18:53:47.124Z,23.02
2023-11-05T18:56:14.583Z,25.55
2023-11-05T18:58:41.668Z,23.85
2023-11-05T19:01:08.771Z,24.17
2023-11-05T19:03:37.440Z,23.50
2023-11-05T19:06:07.170Z,23.45
2023-11-05T19:08:34.190Z,23.55
2023-11-05T19:11:01.858Z,22.88
2023-11-05T19:13:29.664Z,22.65
2023-11-05T19:15:56.873Z,22.55
2023-11-05T19:18:24.078Z,22.67
2023-11-05T19:20:53.460Z,23.20
2023-11-05T19:23:21.068Z,23.52
2023-11-05T19:25:48.279Z,23.63
2023-11-05T19:28:15.457Z,23.27
2023-11-05T19:30:43.083Z,22.73
2023-11-05T19:33:11.180Z,23.10
2023-11-05T19:35:38.911Z,24.17
2023-11-05T19:38:07.135Z,24.90
2023-11-05T19:40:34.378Z,23.30
2023-11-05T19:43:01.500Z,25.70
2023-11-05T19:45:28.741Z,23.85
2023-11-05T19:47:55.840Z,21.52
2023-11-05T19:50:24.075Z,22.85
2023-11-05T19:52:51.308Z,21.52
2023-11-05T19:55:18.617Z,21.88
2023-11-05T19:57:46.216Z,21.83
2023-11-05T20:00:16.064Z,20.92
2023-11-05T20:02:43.574Z,20.67
2023-11-05T20:05:11.021Z,20.65
2023-11-05T20:07:38.306Z,21.05
2023-11-05T20:10:08.508Z,20.98
2023-11-05T20:12:39.589Z,20.65
2023-11-05T20:15:08.177Z,20.63
2023-11-05T20:17:36.938Z,20.83
2023-11-05T20:20:05.243Z,20.65
2023-11-05T20:22:32.322Z,20.95
2023-11-05T20:25:00.873Z,21.23
2023-11-05T20:27:28.086Z,20.75
2023-11-05T20:29:55.181Z,20.95
2023-11-05T20:32:22.668Z,21.67
2023-11-05T20:34:53.842Z,20.90
2023-11-05T20:37:21.084Z,21.20
2023-11-05T20:39:48.227Z,20.70
2023-11-05T20:42:15.936Z,20.98
2023-11-05T20:44:43.197Z,21.25
2023-11-05T20:47:10.683Z,20.83
2023-11-05T20:49:38.064Z,20.83
2023-11-05T20:52:05.877Z,20.38
2023-11-05T20:54:38.049Z,20.67
2023-11-05T20:57:09.195Z,20.40
2023-11-05T20:59:36.236Z,20.35
2023-11-05T21:02:04.919Z,20.08
2023-11-05T21:04:32.192Z,19.92
2023-11-05T21:06:59.323Z,19.88
2023-11-05T21:09:26.559Z,20.23
2023-11-05T21:11:54.264Z,20.20
2023-11-05T21:14:21.661Z,20.42
2023-11-05T21:16:49.130Z,21.00
2023-11-05T21:19:16.250Z,20.60
2023-11-05T21:21:43.268Z,22.20
2023-11-05T21:24:10.455Z,21.67
2023-11-05T21:26:37.468Z,20.80
2023-11-05T21:29:04.592Z,20.70
2023-11-05T21:31:31.724Z,20.45
2023-11-05T21:33:58.775Z,20.30
2023-11-05T21:36:25.945Z,19.85
2023-11-05T21:38:53.009Z,20.17
2023-11-05T21:41:21.181Z,19.85
2023-11-05T21:43:48.800Z,20.13
2023-11-05T21:46:16.336Z,20.10
2023-11-05T21:48:45.635Z,19.55
2023-11-05T21:51:13.095Z,20.25
2023-11-05T21:53:40.120Z,20.35
2023-11-05T21:56:09.102Z,19.98
2023-11-05T21:58:36.182Z,20.25
2023-11-05T22:01:03.467Z,19.80
2023-11-05T22:03:31.164Z,19.75
2023-11-05T22:05:58.458Z,19.83
2023-11-05T22:08:26.957Z,19.58
2023-11-05T22:10:54.933Z,19.70
2023-11-05T22:13:22.118Z,20.02
2023-11-05T22:15:50.123Z,20.20
2023-11-05T22:18:17.305Z,20.10
2023-11-05T22:20:44.444Z,20.58
2023-11-05T22:23:12.011Z,20.65
2023-11-05T22:25:40.880Z,20.33
2023-11-05T22:28:09.474Z,20.73
2023-11-05T22:30:38.090Z,22.38
2023-11-05T22:33:05.587Z,21.30
2023-11-05T22:35:32.713Z,21.00
2023-11-05T22:38:00.099Z,21.20
2023-11-05T22:40:27.624Z,21.63
2023-11-05T22:42:54.816Z,21.90
2023-11-05T22:45:22.570Z,21.73
2023-11-05T22:47:49.592Z,22.17
2023-11-05T22:50:16.767Z,22.58
2023-11-05T22:52:46.784Z,22.27
2023-11-05T22:55:16.271Z,23.30
2023-11-05T22:57:44.230Z,22.55
2023-11-05T23:00:29.009Z,21.48
2023-11-05T23:02:59.577Z,23.25
2023-11-05T23:05:27.002Z,23.63
2023-11-05T23:07:54.630Z,22.60
2023-11-05T23:10:21.905Z,22.15
2023-11-05T23:12:49.215Z,23.00
2023-11-05T23:15:17.505Z,23.30
2023-11-05T23:17:44.692Z,22.33
2023-11-05T23:20:14.166Z,22.83
2023-11-05T23:22:41.553Z,22.77
2023-11-05T23:25:10.790Z,23.08
2023-11-05T23:27:38.415Z,24.05
2023-11-05T23:30:07.698Z,22.30
2023-11-05T23:32:37.697Z,24.30
2023-11-05T23:35:05.237Z,23.08
2023-11-05T23:37:34.029Z,23.27
2023-11-05T23:40:02.465Z,22.88
2023-11-05T23:42:30.569Z,22.48
2023-11-05T23:44:57.561Z,23.90
2023-11-05T23:47:24.627Z,22.27
2023-11-05T23:49:52.119Z,23.38
2023-11-05T23:52:20.459Z,23.75
2023-11-05T23:54:47.632Z,22.55
2023-11-05T23:57:15.746Z,23.10
2023-11-05T23:59:42.959Z,23.33
